Time;durP1;ratioP1;P1;durP2;ratioP2;P2;SDS_P1;SDS_P2;PMS_P1;PMS_P2;Temp;Humidity;BMP_temperature;BMP_pressure;BME280_temperature;BME280_humidity;BME280_pressure;Samples;Min_cycle;Max_cycle;Signal;HPM_P1;HPM_P2
2021/10/07 00:02:03;;;;;;;40.33;29.02;;;;;;;13.40;81.73;102191.51;1795380;79;21643;-83
2021/10/07 00:04:30;;;;;;;36.15;29.10;;;;;;;13.44;81.77;102191.60;1795305;79;21773;-83
2021/10/07 00:06:58;;;;;;;38.33;29.35;;;;;;;13.44;81.78;102198.21;1795107;79;21054;-83
2021/10/07 00:09:25;;;;;;;36.30;27.87;;;;;;;13.44;81.75;102199.14;1795356;79;21073;-83
2021/10/07 00:11:52;;;;;;;36.83;28.57;;;;;;;13.44;81.80;102198.21;1795344;78;21043;-84
2021/10/07 00:14:20;;;;;;;39.78;29.27;;;;;;;13.45;81.85;102196.06;1737263;81;21069;-83
2021/10/07 00:16:49;;;;;;;34.70;27.55;;;;;;;13.47;81.75;102200.55;1795390;79;22420;-83
2021/10/07 00:19:15;;;;;;;32.38;27.80;;;;;;;13.46;81.71;102204.45;1792993;79;21061;-83
2021/10/07 00:21:45;;;;;;;37.85;28.02;;;;;;;13.45;81.75;102199.59;1763921;81;21575;-83
2021/10/07 00:24:17;;;;;;;32.50;27.13;;;;;;;13.45;81.79;102214.58;1762218;81;21077;-83
2021/10/07 00:26:46;;;;;;;33.13;26.30;;;;;;;13.44;81.71;102211.44;1763896;81;21097;-83
2021/10/07 00:32:04;;;;;;;30.40;26.00;;;;;;;13.47;81.82;102222.14;1785191;79;21047;-84
2021/10/07 00:39:02;;;;;;;29.12;24.70;;;;;;;13.47;81.77;102220.82;1766017;80;21044;-83
2021/10/07 00:39:57;;;;;;;30.02;24.37;;;;;;;13.46;81.76;102230.51;1783937;80;21694;-83
2021/10/07 00:42:24;;;;;;;32.95;25.52;;;;;;;13.45;81.78;102234.41;1786706;80;22579;-83
2021/10/07 00:44:53;;;;;;;30.23;24.05;;;;;;;13.44;81.79;102235.24;1786526;78;21102;-83
2021/10/07 00:47:22;;;;;;;31.05;23.15;;;;;;;13.45;81.83;102237.06;1785273;78;21099;-83
2021/10/07 00:49:48;;;;;;;32.65;25.37;;;;;;;13.46;81.92;102232.23;1786690;80;21502;-83
2021/10/07 00:52:18;;;;;;;28.07;24.18;;;;;;;13.46;81.83;102234.48;1787234;80;21093;-84
2021/10/07 00:54:47;;;;;;;32.50;25.60;;;;;;;13.47;81.83;102235.37;1786935;80;22768;-84
2021/10/07 00:57:18;;;;;;;38.42;26.65;;;;;;;13.46;81.79;102242.81;1786751;79;21078;-83
2021/10/07 00:59:43;;;;;;;34.92;25.68;;;;;;;13.45;81.83;102239.27;1786706;79;21040;-84
2021/10/07 01:02:12;;;;;;;39.20;25.45;;;;;;;13.43;81.75;102239.64;1768442;80;21103;-83
2021/10/07 01:04:42;;;;;;;31.75;22.50;;;;;;;13.43;81.80;102237.00;1786666;80;21616;-84
2021/10/07 01:07:11;;;;;;;34.70;24.32;;;;;;;13.41;81.67;102234.72;1786280;79;22443;-83
2021/10/07 01:09:39;;;;;;;28.00;22.35;;;;;;;13.39;81.73;102238.62;1768400;80;21023;-83
2021/10/07 01:12:10;;;;;;;34.88;23.32;;;;;;;13.40;81.74;102240.44;1786756;80;21051;-83
2021/10/07 01:14:52;;;;;;;30.45;23.22;;;;;;;13.39;81.73;102244.34;1769571;80;21081;-83
2021/10/07 01:17:17;;;;;;;33.20;22.95;;;;;;;13.40;81.74;102239.52;1785911;79;21074;-84
2021/10/07 01:19:45;;;;;;;29.45;23.05;;;;;;;13.40;81.74;102244.41;1786839;79;22819;-84
2021/10/07 01:22:16;;;;;;;30.70;21.95;;;;;;;13.41;81.81;102248.84;1786675;80;21082;-84
2021/10/07 01:24:43;;;;;;;35.45;22.58;;;;;;;13.40;81.66;102254.98;1786393;80;21015;-84
2021/10/07 01:27:10;;;;;;;35.25;23.20;;;;;;;13.37;81.61;102257.50;1786330;80;21062;-84
2021/10/07 01:29:38;;;;;;;30.02;22.32;;;;;;;13.37;81.71;102256.61;1769072;80;21078;-83
2021/10/07 01:32:06;;;;;;;27.75;21.27;;;;;;;13.37;81.62;102256.61;1785901;79;21757;-84
2021/10/07 01:34:36;;;;;;;26.97;21.02;;;;;;;13.33;81.62;102252.06;1763606;81;21034;-84
2021/10/07 01:37:02;;;;;;;25.23;21.27;;;;;;;13.31;81.67;102255.96;1795088;79;21066;-83
2021/10/07 01:39:29;;;;;;;28.15;22.13;;;;;;;13.30;81.61;102251.89;1795376;79;21081;-84
2021/10/07 01:41:56;;;;;;;29.23;21.85;;;;;;;13.30;81.74;102255.47;1763753;81;21010;-84
2021/10/07 01:44:24;;;;;;;25.97;21.90;;;;;;;13.30;81.74;102256.79;1795561;79;21656;-85
2021/10/07 01:46:52;;;;;;;32.28;22.42;;;;;;;13.31;81.70;102256.39;1795097;79;21067;-84
2021/10/07 01:49:20;;;;;;;29.40;21.75;;;;;;;13.30;81.69;102260.76;1795553;79;20983;-83
2021/10/07 01:51:46;;;;;;;33.58;22.80;;;;;;;13.29;81.67;102262.91;1795570;79;21105;-84
2021/10/07 01:54:17;;;;;;;29.87;22.73;;;;;;;13.27;81.63;102258.38;1795640;79;21116;-84
2021/10/07 01:56:42;;;;;;;36.53;21.15;;;;;;;13.25;81.72;102265.36;1794824;79;21781;-85
2021/10/07 01:59:09;;;;;;;25.72;21.52;;;;;;;13.25;81.68;102263.64;1795514;79;21057;-84
2021/10/07 02:01:36;;;;;;;25.20;20.27;;;;;;;13.25;81.73;102269.32;1795272;79;21059;-83
2021/10/07 02:04:04;;;;;;;29.92;21.70;;;;;;;13.22;81.73;102268.36;1795149;79;21050;-83
2021/10/07 02:06:31;;;;;;;26.42;20.90;;;;;;;13.21;81.76;102274.91;1795181;79;21043;-83
2021/10/07 02:08:58;;;;;;;25.65;19.90;;;;;;;13.21;81.76;102274.91;1795037;79;22535;-83
2021/10/07 02:11:27;;;;;;;28.32;21.17;;;;;;;13.17;81.76;102279.17;1794711;79;21089;-84
2021/10/07 02:13:53;;;;;;;31.45;22.17;;;;;;;13.15;81.79;102278.65;1795202;79;21065;-84
2021/10/07 02:16:20;;;;;;;27.82;21.05;;;;;;;13.14;81.84;102278.19;1795257;79;21055;-83
2021/10/07 02:18:47;;;;;;;26.35;20.97;;;;;;;13.16;81.91;102280.47;1795207;79;21061;-83
2021/10/07 02:21:16;;;;;;;27.90;19.87;;;;;;;13.15;81.95;102283.94;1794715;79;21113;-83
2021/10/07 02:23:48;;;;;;;27.90;21.60;;;;;;;13.16;81.93;102285.75;1794399;78;21015;-83
2021/10/07 02:26:13;;;;;;;26.07;20.20;;;;;;;13.17;81.99;102291.50;1794755;79;21050;-83
2021/10/07 02:28:43;;;;;;;27.48;20.23;;;;;;;13.17;82.01;102289.75;1794985;79;21042;-83
2021/10/07 02:31:12;;;;;;;30.05;21.10;;;;;;;13.19;81.98;102293.78;1794812;79;21046;-83
2021/10/07 02:33:42;;;;;;;26.73;20.57;;;;;;;13.20;81.93;102297.81;1794867;79;21754;-83
2021/10/07 02:36:08;;;;;;;22.42;20.02;;;;;;;13.20;81.97;102302.21;1794557;79;21055;-83
2021/10/07 02:38:37;;;;;;;24.43;20.45;;;;;;;13.21;81.94;102298.70;1794557;79;21015;-83
2021/10/07 02:41:04;;;;;;;29.32;20.57;;;;;;;13.15;81.91;102295.84;1795045;79;21101;-83
2021/10/07 02:43:30;;;;;;;26.10;20.27;;;;;;;13.16;81.88;102298.98;1757335;81;21070;-83
2021/10/07 02:46:00;;;;;;;25.85;20.52;;;;;;;13.16;81.92;102302.52;1757182;81;21813;-83
2021/10/07 02:48:28;;;;;;;26.05;20.72;;;;;;;13.15;81.91;102309.05;1726145;81;21058;-83
2021/10/07 02:50:55;;;;;;;28.07;20.62;;;;;;;13.14;81.98;102311.23;1756962;81;21133;-83
2021/10/07 02:53:22;;;;;;;23.73;19.90;;;;;;;13.13;81.92;102310.73;1757036;81;21097;-83
2021/10/07 02:55:49;;;;;;;29.18;20.55;;;;;;;13.11;81.94;102315.06;1756979;81;21086;-83
2021/10/07 02:58:16;;;;;;;27.55;20.35;;;;;;;13.12;82.06;102315.53;1757025;81;21751;-82
2021/10/07 03:00:45;;;;;;;29.82;20.02;;;;;;;13.12;82.06;102319.10;1757016;81;21078;-82
2021/10/07 03:03:16;;;;;;;24.25;19.85;;;;;;;13.11;82.07;102319.92;1728354;81;21096;-83
2021/10/07 03:05:48;;;;;;;29.07;19.90;;;;;;;13.12;82.15;102315.53;1725841;81;21113;-83
2021/10/07 03:08:13;;;;;;;27.20;19.67;;;;;;;13.14;82.17;102322.70;1756571;81;21078;-82
2021/10/07 03:10:40;;;;;;;35.35;20.45;;;;;;;13.14;82.12;102325.78;1757293;81;22461;-82
2021/10/07 03:13:07;;;;;;;26.50;19.48;;;;;;;13.14;82.08;102322.70;1757042;81;21070;-82
2021/10/07 03:15:34;;;;;;;29.48;19.62;;;;;;;13.12;82.06;102327.42;1756976;81;21293;-82
2021/10/07 03:18:01;;;;;;;23.00;18.42;;;;;;;13.10;82.05;102327.79;1757030;81;21571;-82
2021/10/07 03:20:28;;;;;;;24.52;18.48;;;;;;;13.08;81.97;102329.47;1757224;81;21042;-83
2021/10/07 03:22:57;;;;;;;24.50;18.45;;;;;;;13.05;81.98;102328.94;1757209;81;22511;-83
2021/10/07 03:25:30;;;;;;;27.67;18.65;;;;;;;13.03;82.04;102339.88;1757245;81;21063;-83
2021/10/07 03:27:57;;;;;;;31.05;18.87;;;;;;;13.03;82.10;102342.52;1757702;81;21074;-83
2021/10/07 03:30:24;;;;;;;20.32;17.85;;;;;;;12.99;82.01;102344.56;1757536;81;21114;-82
2021/10/07 03:32:51;;;;;;;20.62;17.65;;;;;;;12.96;81.96;102346.64;1754409;81;21126;-83
2021/10/07 03:35:20;;;;;;;25.27;17.12;;;;;;;12.94;81.97;102352.29;1747894;82;21703;-83
2021/10/07 03:37:47;;;;;;;22.22;17.45;;;;;;;12.91;81.99;102353.47;1748340;82;21063;-83
2021/10/07 03:40:14;;;;;;;26.93;17.65;;;;;;;12.91;82.03;102356.11;1748564;82;21090;-83
2021/10/07 03:42:41;;;;;;;20.10;16.65;;;;;;;12.92;82.10;102355.72;1748328;82;21048;-83
2021/10/07 03:45:09;;;;;;;24.98;19.62;;;;;;;12.91;82.04;102358.76;1726450;82;21100;-83
2021/10/07 03:47:36;;;;;;;23.98;17.70;;;;;;;12.92;82.03;102364.55;1724962;83;21772;-83
2021/10/07 03:50:04;;;;;;;30.57;17.62;;;;;;;12.92;82.03;102364.55;1742474;82;21552;-84
2021/10/07 03:52:31;;;;;;;28.98;17.92;;;;;;;12.92;82.02;102369.83;1726677;83;21104;-83
2021/10/07 03:54:57;;;;;;;20.43;17.48;;;;;;;12.93;82.01;102374.69;1724971;83;21073;-83
2021/10/07 03:57:26;;;;;;;21.60;17.23;;;;;;;12.93;82.02;102381.30;1743011;82;21154;-83
2021/10/07 03:59:53;;;;;;;26.00;16.97;;;;;;;12.90;81.93;102382.08;1726299;83;21936;-83
2021/10/07 04:02:21;;;;;;;20.00;16.62;;;;;;;12.88;81.92;102380.23;1697809;83;21051;-82
2021/10/07 04:04:50;;;;;;;26.80;18.40;;;;;;;12.88;82.00;102385.52;1742849;82;21079;-83
2021/10/07 04:07:19;;;;;;;24.80;17.87;;;;;;;12.88;81.93;102380.23;1726712;83;21069;-84
2021/10/07 04:09:46;;;;;;;21.62;17.50;;;;;;;12.87;81.89;102388.55;1725215;83;21070;-83
2021/10/07 04:12:13;;;;;;;20.62;17.17;;;;;;;12.86;81.94;102389.41;1743044;82;21794;-84
2021/10/07 04:14:40;;;;;;;26.15;18.25;;;;;;;12.86;81.87;102389.41;1726908;82;21073;-85
2021/10/07 04:17:07;;;;;;;22.20;17.77;;;;;;;12.84;81.81;102385.38;1717817;82;21083;-86
2021/10/07 04:19:33;;;;;;;25.40;18.80;;;;;;;12.83;81.86;102394.12;1700217;83;21011;-83
2021/10/07 04:22:03;;;;;;;27.10;18.30;;;;;;;12.82;81.84;102392.77;1725258;83;21777;-89
2021/10/07 04:24:30;;;;;;;30.97;19.17;;;;;;;12.82;81.83;102395.41;1743283;82;22505;-89
2021/10/07 04:26:57;;;;;;;31.48;21.73;;;;;;;12.81;81.84;102394.91;1726977;83;21026;-90
2021/10/07 04:29:24;;;;;;;31.27;20.45;;;;;;;12.79;81.76;102393.52;1725556;83;21654;-91
2021/10/07 04:31:51;;;;;;;26.20;20.85;;;;;;;12.78;81.76;102400.98;1743287;82;21086;-86
2021/10/07 04:34:18;;;;;;;27.13;19.37;;;;;;;12.79;81.77;102402.77;1727413;81;21523;-92
2021/10/07 04:37:11;;;;;;;24.77;18.60;;;;;;;12.78;81.79;102406.27;1725451;82;21801;-93
2021/10/07 04:39:38;;;;;;;26.75;18.62;;;;;;;12.79;81.79;102408.47;1738232;82;21099;-81
2021/10/07 04:42:05;;;;;;;25.20;19.92;;;;;;;12.79;81.77;102415.97;1700362;83;21018;-84
2021/10/07 04:44:34;;;;;;;22.55;18.07;;;;;;;12.81;81.89;102421.33;1698373;83;20971;-85
2021/10/07 04:47:01;;;;;;;23.22;18.35;;;;;;;12.79;81.82;102426.97;1738415;82;21095;-84
2021/10/07 04:49:30;;;;;;;23.50;18.25;;;;;;;12.79;81.84;102430.94;1727039;82;21762;-84
2021/10/07 04:51:58;;;;;;;26.68;18.80;;;;;;;12.80;81.79;102436.69;1725432;82;21256;-84
2021/10/07 04:54:25;;;;;;;29.07;19.62;;;;;;;12.79;81.84;102438.44;1738247;82;21056;-82
2021/10/07 04:56:52;;;;;;;26.77;18.55;;;;;;;12.79;81.77;102438.86;1726604;83;21684;-80
2021/10/07 04:59:18;;;;;;;28.92;18.02;;;;;;;12.81;81.80;102446.44;1725303;83;21234;-80
2021/10/07 05:01:45;;;;;;;27.17;17.85;;;;;;;12.82;81.74;102442.55;1738153;82;21742;-83
2021/10/07 05:04:12;;;;;;;21.85;16.87;;;;;;;12.82;81.75;102449.16;1726961;83;21045;-83
2021/10/07 05:06:39;;;;;;;27.37;17.10;;;;;;;12.82;81.72;102451.80;1725647;82;21061;-83
2021/10/07 05:09:10;;;;;;;23.85;16.80;;;;;;;12.79;81.51;102455.61;1712594;82;21071;-84
2021/10/07 05:11:37;;;;;;;27.98;16.65;;;;;;;12.77;81.56;102451.11;1727320;83;21081;-84
2021/10/07 05:14:06;;;;;;;26.15;18.23;;;;;;;12.78;81.59;102456.86;1725880;81;22447;-83
2021/10/07 05:16:33;;;;;;;22.37;17.25;;;;;;;12.76;81.56;102455.50;1737631;82;21072;-83
2021/10/07 05:19:00;;;;;;;21.30;17.92;;;;;;;12.76;81.59;102463.83;1737650;81;21021;-83
2021/10/07 05:21:29;;;;;;;23.98;18.05;;;;;;;12.76;81.62;102468.71;1726633;82;21131;-82
2021/10/07 05:23:58;;;;;;;25.75;18.07;;;;;;;12.74;81.56;102470.35;1726015;82;21040;-82
2021/10/07 05:26:28;;;;;;;23.85;18.77;;;;;;;12.74;81.59;102472.10;1738763;81;21864;-82
2021/10/07 05:28:56;;;;;;;27.93;18.40;;;;;;;12.72;81.62;102473.78;1738571;81;21187;-82
2021/10/07 05:31:23;;;;;;;25.50;18.57;;;;;;;12.72;81.68;102480.38;1739052;82;21563;-82
2021/10/07 05:33:50;;;;;;;24.87;17.67;;;;;;;12.74;81.64;102476.06;1758450;81;21113;-82
2021/10/07 05:36:17;;;;;;;25.45;17.50;;;;;;;12.73;81.57;102479.56;1784164;80;21706;-82
2021/10/07 05:38:44;;;;;;;22.75;18.30;;;;;;;12.73;81.56;102482.20;1756410;81;21830;-82
2021/10/07 05:41:11;;;;;;;28.42;18.23;;;;;;;12.74;81.56;102486.64;1784163;80;21061;-82
2021/10/07 05:43:38;;;;;;;25.17;18.07;;;;;;;12.76;81.52;102491.56;1756626;81;21071;-82
2021/10/07 05:46:05;;;;;;;25.15;16.35;;;;;;;12.74;81.42;102491.50;1784219;80;21520;-82
2021/10/07 05:48:33;;;;;;;27.98;17.70;;;;;;;12.76;81.46;102492.89;1784244;80;21061;-83
2021/10/07 05:51:03;;;;;;;25.12;17.25;;;;;;;12.76;81.33;102495.53;1753098;81;21683;-83
2021/10/07 05:53:32;;;;;;;34.73;19.07;;;;;;;12.78;81.42;102501.78;1787704;78;21110;-82
2021/10/07 05:55:59;;;;;;;28.57;17.48;;;;;;;12.80;81.38;102501.03;1769914;80;21098;-82
2021/10/07 05:58:28;;;;;;;23.62;16.70;;;;;;;12.84;81.22;102504.72;1801825;77;21000;-82
2021/10/07 06:00:54;;;;;;;23.80;17.15;;;;;;;12.84;81.05;102506.94;1800532;78;21059;-81
2021/10/07 06:03:21;;;;;;;25.05;16.07;;;;;;;12.87;80.92;102520.69;1786595;78;22265;-82
2021/10/07 06:05:47;;;;;;;20.90;16.65;;;;;;;12.88;80.92;102520.30;1786072;79;21100;-82
2021/10/07 06:08:14;;;;;;;24.23;17.10;;;;;;;12.91;80.88;102520.41;1786265;80;21457;-82
2021/10/07 06:10:41;;;;;;;26.37;16.27;;;;;;;12.93;80.73;102523.62;1786299;79;21113;-82
2021/10/07 06:13:08;;;;;;;24.60;16.27;;;;;;;12.95;80.53;102523.27;1786319;80;21575;-82
2021/10/07 06:15:35;;;;;;;24.43;15.28;;;;;;;12.98;80.48;102523.81;1786596;80;21746;-82
2021/10/07 06:18:02;;;;;;;25.65;15.35;;;;;;;13.01;80.33;102530.14;1786183;80;21037;-82
2021/10/07 06:22:56;;;;;;;22.85;15.58;;;;;;;13.09;80.05;102533.53;1786115;80;21295;-81
2021/10/07 06:25:23;;;;;;;20.60;15.70;;;;;;;13.13;79.93;102536.36;1786225;80;21068;-82
2021/10/07 06:27:54;;;;;;;24.30;16.35;;;;;;;13.18;79.82;102536.16;1786025;80;21783;-82
2021/10/07 06:30:19;;;;;;;18.23;15.18;;;;;;;13.27;79.67;102546.62;1785264;80;21089;-81
2021/10/07 06:32:47;;;;;;;20.35;14.87;;;;;;;13.29;79.59;102549.84;1786139;80;21043;-82
2021/10/07 06:35:13;;;;;;;20.95;15.10;;;;;;;13.34;79.43;102553.59;1785125;79;21041;-82
2021/10/07 06:37:44;;;;;;;24.02;16.52;;;;;;;13.37;79.20;102559.03;1785761;80;21048;-81
2021/10/07 06:40:10;;;;;;;29.80;17.77;;;;;;;13.39;79.21;102561.31;1785394;80;21971;-81
2021/10/07 06:42:37;;;;;;;25.43;16.57;;;;;;;13.41;79.13;102557.42;1786472;80;21085;-81
2021/10/07 06:45:05;;;;;;;25.27;16.40;;;;;;;13.46;79.22;102566.46;1785902;79;21319;-81
2021/10/07 06:47:32;;;;;;;24.70;16.37;;;;;;;13.50;78.91;102562.20;1785313;79;21125;-81
2021/10/07 06:50:02;;;;;;;22.93;16.87;;;;;;;13.50;78.82;102567.07;1785963;80;21085;-82
2021/10/07 06:52:29;;;;;;;22.07;16.37;;;;;;;13.52;78.71;102567.14;1785315;79;22530;-82
2021/10/07 06:54:56;;;;;;;21.65;15.15;;;;;;;13.57;78.74;102566.89;1786000;79;21104;-82
2021/10/07 06:57:23;;;;;;;23.20;15.93;;;;;;;13.64;78.73;102564.09;1786228;80;21061;-82
2021/10/07 06:59:49;;;;;;;22.05;15.35;;;;;;;13.71;78.56;102571.02;1786284;80;21034;-82
2021/10/07 07:02:16;;;;;;;21.25;15.55;;;;;;;13.77;78.44;102573.02;1786472;80;21744;-82
2021/10/07 07:04:43;;;;;;;21.73;14.70;;;;;;;13.79;78.29;102570.94;1786232;80;21744;-82
2021/10/07 07:07:10;;;;;;;20.50;14.33;;;;;;;13.83;78.12;102578.55;1786242;79;21025;-82
2021/10/07 07:09:37;;;;;;;22.60;15.23;;;;;;;13.84;77.86;102576.83;1786595;80;20979;-82
2021/10/07 07:12:04;;;;;;;23.32;14.93;;;;;;;13.87;77.82;102581.83;1786351;80;21022;-82
2021/10/07 07:14:32;;;;;;;26.20;15.72;;;;;;;13.89;77.64;102589.41;1786335;80;21563;-81
2021/10/07 07:16:59;;;;;;;22.05;14.35;;;;;;;13.91;77.69;102593.02;1786120;80;21806;-82
2021/10/07 07:19:25;;;;;;;24.12;15.25;;;;;;;13.93;77.66;102594.41;1786288;80;21018;-82
2021/10/07 07:21:54;;;;;;;24.52;16.20;;;;;;;13.94;77.52;102598.42;1755338;80;21246;-82
2021/10/07 07:24:21;;;;;;;22.48;15.78;;;;;;;13.94;77.40;102601.50;1786187;80;21117;-82
2021/10/07 07:26:48;;;;;;;24.35;15.75;;;;;;;13.93;77.41;102608.55;1786358;80;22107;-82
2021/10/07 07:29:14;;;;;;;20.75;14.80;;;;;;;13.97;77.37;102613.55;1786153;80;21747;-82
2021/10/07 07:31:42;;;;;;;18.05;15.10;;;;;;;13.96;77.23;102611.73;1786312;80;21226;-82
2021/10/07 07:34:09;;;;;;;23.47;15.15;;;;;;;13.93;77.05;102608.55;1786111;79;21583;-82
2021/10/07 07:36:36;;;;;;;19.73;14.55;;;;;;;13.95;77.07;102608.19;1785848;80;21551;-82
2021/10/07 07:39:03;;;;;;;20.72;14.70;;;;;;;14.00;76.97;102613.66;1755600;80;21077;-82
2021/10/07 07:41:30;;;;;;;19.95;14.10;;;;;;;14.04;76.74;102616.01;1786205;80;21783;-82
2021/10/07 07:43:57;;;;;;;17.77;13.65;;;;;;;14.08;76.47;102614.00;1786031;80;21033;-81
2021/10/07 07:46:24;;;;;;;19.23;13.28;;;;;;;14.08;76.19;102615.31;1786356;79;21109;-82
2021/10/07 07:48:51;;;;;;;14.90;12.33;;;;;;;14.13;75.97;102617.31;1786172;80;21057;-82
2021/10/07 07:51:18;;;;;;;19.80;13.40;;;;;;;14.15;75.60;102612.05;1786218;80;21132;-82
2021/10/07 07:53:46;;;;;;;16.70;13.13;;;;;;;14.18;75.50;102617.48;1786108;80;21824;-82
2021/10/07 07:56:15;;;;;;;18.77;12.65;;;;;;;14.24;75.27;102616.82;1786165;80;21010;-82
2021/10/07 07:58:44;;;;;;;18.02;13.45;;;;;;;14.30;75.24;102618.38;1786336;80;21109;-82
2021/10/07 08:01:10;;;;;;;21.45;14.30;;;;;;;14.38;75.05;102627.13;1786366;79;20983;-82
2021/10/07 08:03:37;;;;;;;20.95;14.58;;;;;;;14.40;74.78;102619.23;1786457;79;21049;-82
2021/10/07 08:06:04;;;;;;;18.60;13.30;;;;;;;14.45;74.68;102620.73;1786309;80;22471;-82
2021/10/07 08:08:31;;;;;;;16.50;12.82;;;;;;;14.52;74.64;102621.02;1786100;79;21112;-82
2021/10/07 08:10:58;;;;;;;18.10;13.10;;;;;;;14.63;74.39;102616.61;1786168;80;21108;-82
2021/10/07 08:13:25;;;;;;;23.42;14.60;;;;;;;14.69;73.96;102616.83;1786101;80;21061;-82
2021/10/07 08:15:52;;;;;;;16.23;13.10;;;;;;;14.73;73.59;102622.73;1786317;79;21057;-82
2021/10/07 08:18:20;;;;;;;18.52;13.38;;;;;;;14.79;73.44;102621.66;1786175;80;22538;-82
2021/10/07 08:20:51;;;;;;;20.17;12.78;;;;;;;14.83;72.93;102626.22;1785606;80;20978;-82
2021/10/07 08:23:17;;;;;;;14.83;12.93;;;;;;;14.85;72.98;102617.01;1786070;80;21050;-82
2021/10/07 08:25:44;;;;;;;15.00;12.10;;;;;;;14.91;72.91;102623.42;1786144;80;21729;-83
2021/10/07 08:28:11;;;;;;;20.57;12.15;;;;;;;14.93;72.41;102617.75;1786134;80;21033;-83
2021/10/07 08:30:38;;;;;;;18.37;12.30;;;;;;;14.92;72.18;102622.59;1786472;80;22526;-83
2021/10/07 08:33:05;;;;;;;21.02;11.70;;;;;;;14.93;72.08;102628.78;1786085;79;20987;-82
2021/10/07 08:35:33;;;;;;;18.80;13.05;;;;;;;14.97;72.07;102634.67;1787729;79;21046;-83
2021/10/07 08:38:00;;;;;;;16.82;12.47;;;;;;;15.05;71.98;102637.61;1789018;80;21029;-82
2021/10/07 08:40:27;;;;;;;23.27;12.37;;;;;;;15.19;72.06;102638.14;1757877;81;21056;-83
2021/10/07 08:42:54;;;;;;;19.23;12.88;;;;;;;15.33;71.78;102644.42;1789116;80;21957;-82
2021/10/07 08:45:21;;;;;;;15.58;12.07;;;;;;;15.46;71.77;102634.22;1757812;81;21056;-82
2021/10/07 08:47:49;;;;;;;21.23;12.45;;;;;;;15.48;71.07;102634.73;1789131;80;21627;-82
2021/10/07 08:50:18;;;;;;;17.87;12.53;;;;;;;15.51;71.12;102628.66;1757894;81;21202;-82
2021/10/07 08:52:45;;;;;;;14.93;11.68;;;;;;;15.55;70.98;102632.78;1789492;80;22201;-81
2021/10/07 08:55:12;;;;;;;17.70;12.25;;;;;;;15.50;70.59;102633.47;1757758;81;21883;-81
2021/10/07 08:57:39;;;;;;;20.20;12.55;;;;;;;15.50;70.43;102638.78;1789267;80;20978;-81
2021/10/07 09:00:08;;;;;;;17.85;12.33;;;;;;;15.47;70.38;102640.91;1730099;81;21044;-81
2021/10/07 09:02:35;;;;;;;22.62;12.65;;;;;;;15.46;70.12;102634.22;1789170;80;21493;-81
2021/10/07 09:05:17;;;;;;;23.57;12.58;;;;;;;15.42;70.11;102631.88;1757931;81;21088;-82
2021/10/07 09:08:05;;;;;;;19.75;13.20;;;;;;;15.45;70.09;102637.30;1789389;80;21761;-82
2021/10/07 09:10:49;;;;;;;16.00;12.50;;;;;;;15.50;70.03;102633.47;1757990;81;21559;-81
2021/10/07 09:13:21;;;;;;;16.02;12.47;;;;;;;15.59;70.13;102633.79;1789364;79;21041;-82
2021/10/07 09:15:59;;;;;;;20.10;13.18;;;;;;;15.77;70.20;102628.69;1758232;81;21204;-82
2021/10/07 09:18:28;;;;;;;19.10;12.80;;;;;;;15.84;69.85;102624.96;1789483;80;21025;-82
2021/10/07 09:20:56;;;;;;;14.60;11.93;;;;;;;15.89;69.82;102627.31;1758296;81;22583;-82
2021/10/07 09:23:26;;;;;;;17.98;12.75;;;;;;;15.96;69.62;102626.22;1789350;79;21054;-82
2021/10/07 09:26:00;;;;;;;19.45;13.65;;;;;;;15.97;69.24;102630.22;1758156;81;21516;-82
2021/10/07 09:28:30;;;;;;;;;;;;;;;15.93;69.33;102630.58;1792000;80;21649;-81
2021/10/07 09:31:01;;;;;;;15.58;13.00;;;;;;;15.98;69.46;102635.13;1758222;81;20158;-81
2021/10/07 09:33:42;;;;;;;17.17;13.10;;;;;;;16.02;68.98;102631.72;1760822;80;21891;-81
2021/10/07 09:36:15;;;;;;;22.82;14.07;;;;;;;15.95;68.66;102637.23;1777372;79;21009;-81
2021/10/07 09:38:44;;;;;;;24.75;15.53;;;;;;;15.88;68.44;102637.48;1769386;79;21612;-81
2021/10/07 09:41:18;;;;;;;17.42;13.65;;;;;;;15.79;68.46;102639.83;1778435;80;21175;-81
2021/10/07 09:43:54;;;;;;;20.30;13.60;;;;;;;15.73;68.20;102636.54;1778087;80;21560;-82
2021/10/07 09:46:51;;;;;;;23.12;13.53;;;;;;;15.54;67.78;102636.70;1778618;80;22078;-81
2021/10/07 09:49:20;;;;;;;18.92;12.45;;;;;;;15.39;67.88;102649.04;1778372;80;21065;-82
2021/10/07 09:51:51;;;;;;;23.95;14.13;;;;;;;15.29;67.99;102651.77;1745567;80;21059;-82
2021/10/07 09:54:21;;;;;;;17.35;13.43;;;;;;;15.22;67.91;102652.41;1778571;80;21077;-82
2021/10/07 09:56:57;;;;;;;21.33;13.25;;;;;;;15.15;67.92;102646.40;1778615;80;21135;-82
2021/10/07 09:59:25;;;;;;;22.32;14.78;;;;;;;15.15;68.20;102655.69;1778498;80;22408;-82
2021/10/07 10:01:54;;;;;;;19.62;14.93;;;;;;;15.15;68.19;102655.25;1778470;80;21084;-82
2021/10/07 10:04:21;;;;;;;18.70;14.40;;;;;;;15.10;67.95;102654.17;1778551;80;21075;-82
2021/10/07 10:06:48;;;;;;;19.52;13.58;;;;;;;15.07;68.12;102660.71;1778564;80;21067;-82
2021/10/07 10:09:14;;;;;;;22.10;14.45;;;;;;;15.07;67.95;102658.06;1778437;80;21091;-82
2021/10/07 10:11:41;;;;;;;17.48;13.78;;;;;;;15.01;67.65;102658.23;1778427;80;21743;-82
2021/10/07 10:14:09;;;;;;;17.75;13.13;;;;;;;14.96;67.62;102654.11;1778352;80;21626;-82
2021/10/07 10:16:39;;;;;;;19.00;13.20;;;;;;;14.96;67.92;102651.02;1778412;80;21510;-82
2021/10/07 10:19:06;;;;;;;20.52;14.55;;;;;;;14.99;68.02;102650.66;1778430;80;21753;-82
2021/10/07 10:21:39;;;;;;;16.48;13.28;;;;;;;15.00;67.71;102660.39;1778536;80;21123;-82
2021/10/07 10:24:08;;;;;;;19.35;13.18;;;;;;;14.99;67.84;102658.17;1778430;80;22525;-82
2021/10/07 10:26:39;;;;;;;16.48;13.08;;;;;;;15.03;67.74;102657.44;1778432;80;21566;-82
2021/10/07 10:29:22;;;;;;;22.22;12.82;;;;;;;15.04;67.82;102657.04;1778504;80;21014;-81
2021/10/07 10:31:53;;;;;;;19.03;13.93;;;;;;;15.03;67.64;102660.52;1778857;80;21562;-81
2021/10/07 10:34:21;;;;;;;20.85;14.33;;;;;;;15.01;67.63;102665.77;1778358;80;21887;-81
2021/10/07 10:36:56;;;;;;;15.58;13.28;;;;;;;14.99;67.66;102669.22;1778214;80;22540;-81
2021/10/07 10:39:30;;;;;;;17.48;12.90;;;;;;;14.97;67.82;102666.50;1778668;80;21076;-82
2021/10/07 10:42:03;;;;;;;26.23;13.78;;;;;;;15.01;67.88;102668.84;1778918;80;21580;-81
2021/10/07 10:44:44;;;;;;;20.55;14.38;;;;;;;15.06;67.82;102669.93;1778267;80;21071;-81
2021/10/07 10:47:24;;;;;;;19.62;13.72;;;;;;;15.09;67.74;102672.28;1778510;80;21084;-81
2021/10/07 10:49:57;;;;;;;19.25;14.65;;;;;;;15.12;67.61;102676.78;1778478;80;22535;-81
2021/10/07 10:52:42;;;;;;;19.42;14.15;;;;;;;15.11;67.59;102676.31;1778537;80;21781;-81
2021/10/07 10:55:18;;;;;;;17.73;14.00;;;;;;;15.07;67.59;102679.28;1778441;80;21071;-81
2021/10/07 10:57:47;;;;;;;18.48;13.78;;;;;;;15.05;67.69;102680.94;1778384;80;21649;-81
2021/10/07 11:00:29;;;;;;;20.35;14.43;;;;;;;15.06;67.85;102680.54;1778467;80;21095;-81
2021/10/07 11:03:17;;;;;;;18.30;14.53;;;;;;;15.14;68.08;102677.73;1778518;80;21761;-82
2021/10/07 11:06:04;;;;;;;16.20;13.65;;;;;;;15.24;68.06;102685.20;1778414;80;21060;-82
2021/10/07 11:08:47;;;;;;;20.50;14.25;;;;;;;15.32;67.95;102686.81;1778353;80;21033;-81
2021/10/07 11:11:26;;;;;;;20.07;13.67;;;;;;;15.32;67.53;102684.16;1778564;80;21598;-81
2021/10/07 11:13:54;;;;;;;19.32;14.40;;;;;;;15.26;67.51;102680.86;1778957;80;21435;-81
2021/10/07 11:16:21;;;;;;;16.80;13.65;;;;;;;15.32;67.48;102683.72;1778390;80;22569;-81
2021/10/07 11:18:49;;;;;;;22.25;14.95;;;;;;;15.33;67.35;102688.59;1778443;80;21546;-81
2021/10/07 11:21:19;;;;;;;16.87;14.28;;;;;;;15.39;67.26;102689.24;1778158;80;21081;-81
2021/10/07 11:23:54;;;;;;;20.90;14.23;;;;;;;15.51;67.38;102692.35;1777922;80;21116;-81
2021/10/07 11:26:25;;;;;;;18.67;15.32;;;;;;;15.67;67.33;102692.45;1778405;80;21069;-81